PWSweather.com
Personal Weather Stations
Station Observations
WATERF01
WaterfordIE

WaterfordIE

Lat: 52.2412507, Lon: -7.1414691

Elevation: 65

Station Type: Davis Vantage Vue

www.waterfordweather.com

High Low Average
Temperature 65.6°F18.7°C 44.4°F6.9°C 56.2°F13.4°C
Dew Point 55.2°F12.9°C 40.8°F4.9°C 48.3°F9.1°C
Winds 11.5 mph 18.5 kmh Calm Calm 3.0 mph WSW4.8 kmh WSW
Wind Gusts 18.4 mph29.6 kmh -- 5.0 mph8.0 kmh
Humidity 87% 54% 76%
Pressure 30.00 in1015.9 mb 29.93 in1013.5 mb -
Precipitation 0.01 in0.3 mm - -
Hour Temp Dew Point Humidity Winds Wind Gusts Pressure Precip Precip Rate Daily Precip Total
12:00 AM 53.0°F11.7°C 46.0°F7.8°C 77% Calm Calm -- 29.93 in1013.5 mb - 0.00 in0.0 mm 0.00 in0.0 mm
12:10 AM 52.5°F11.4°C 46.2°F7.9°C 79% Calm Calm -- 29.94 in1013.9 mb - 0.00 in0.0 mm 0.00 in0.0 mm
12:20 AM 52.2°F11.2°C 45.9°F7.7°C 79% 1.2 mph NW1.9 kmh NW 2.3 mph3.7 kmh 29.94 in1013.9 mb - 0.00 in0.0 mm 0.00 in0.0 mm
12:30 AM 52.0°F11.1°C 46.0°F7.8°C 80% Calm Calm -- 29.93 in1013.5 mb - 0.00 in0.0 mm 0.00 in0.0 mm
12:40 AM 51.4°F10.8°C 45.5°F7.5°C 80% Calm Calm -- 29.93 in1013.5 mb - 0.00 in0.0 mm 0.00 in0.0 mm
12:50 AM 50.7°F10.4°C 45.0°F7.2°C 81% Calm Calm -- 29.93 in1013.5 mb - 0.00 in0.0 mm 0.00 in0.0 mm
01:00 AM 50.3°F10.2°C 45.0°F7.2°C 82% Calm Calm -- 29.93 in1013.5 mb - 0.00 in0.0 mm 0.00 in0.0 mm
01:10 AM 49.8°F9.9°C 44.9°F7.2°C 83% Calm Calm -- 29.93 in1013.5 mb - 0.00 in0.0 mm 0.00 in0.0 mm
01:20 AM 49.8°F9.9°C 44.9°F7.2°C 83% Calm Calm -- 29.93 in1013.5 mb - 0.00 in0.0 mm 0.00 in0.0 mm
01:30 AM 49.8°F9.9°C 44.8°F7.1°C 83% Calm Calm -- 29.93 in1013.5 mb - 0.00 in0.0 mm 0.00 in0.0 mm
01:40 AM 49.5°F9.7°C 44.6°F7.0°C 83% Calm Calm -- 29.93 in1013.5 mb - 0.00 in0.0 mm 0.00 in0.0 mm
01:50 AM 48.8°F9.3°C 43.9°F6.6°C 83% Calm Calm -- 29.94 in1013.9 mb - 0.00 in0.0 mm 0.00 in0.0 mm
02:00 AM 48.4°F9.1°C 43.8°F6.6°C 84% Calm Calm -- 29.93 in1013.5 mb - 0.00 in0.0 mm 0.00 in0.0 mm
02:10 AM 48.1°F8.9°C 43.8°F6.6°C 85% Calm Calm -- 29.93 in1013.5 mb - 0.00 in0.0 mm 0.00 in0.0 mm
02:20 AM 48.0°F8.9°C 43.7°F6.5°C 85% Calm Calm -- 29.93 in1013.5 mb - 0.00 in0.0 mm 0.00 in0.0 mm
02:30 AM 47.9°F8.8°C 43.6°F6.4°C 85% Calm Calm -- 29.93 in1013.5 mb - 0.00 in0.0 mm 0.00 in0.0 mm
02:40 AM 47.8°F8.8°C 43.5°F6.4°C 85% Calm Calm -- 29.93 in1013.5 mb - 0.00 in0.0 mm 0.00 in0.0 mm
02:50 AM 47.0°F8.3°C 42.7°F5.9°C 85% Calm Calm -- 29.93 in1013.5 mb - 0.00 in0.0 mm 0.00 in0.0 mm
03:00 AM 46.4°F8.0°C 42.1°F5.6°C 85% Calm Calm -- 29.93 in1013.5 mb - 0.00 in0.0 mm 0.00 in0.0 mm
03:10 AM 46.0°F7.8°C 42.0°F5.6°C 86% Calm Calm -- 29.93 in1013.5 mb - 0.00 in0.0 mm 0.00 in0.0 mm
03:20 AM 45.8°F7.7°C 41.8°F5.4°C 86% Calm Calm -- 29.93 in1013.5 mb - 0.00 in0.0 mm 0.00 in0.0 mm
03:30 AM 45.5°F7.5°C 41.6°F5.3°C 86% Calm Calm -- 29.93 in1013.5 mb - 0.00 in0.0 mm 0.00 in0.0 mm
03:40 AM 45.2°F7.3°C 41.3°F5.2°C 86% Calm Calm -- 29.94 in1013.9 mb - 0.00 in0.0 mm 0.00 in0.0 mm
03:50 AM 44.9°F7.2°C 41.3°F5.2°C 87% Calm Calm -- 29.94 in1013.9 mb - 0.00 in0.0 mm 0.00 in0.0 mm
04:00 AM 44.9°F7.2°C 41.3°F5.2°C 87% Calm Calm -- 29.94 in1013.9 mb - 0.00 in0.0 mm 0.00 in0.0 mm
04:10 AM 44.5°F6.9°C 40.9°F4.9°C 87% Calm Calm -- 29.94 in1013.9 mb - 0.00 in0.0 mm 0.00 in0.0 mm
04:20 AM 44.5°F6.9°C 40.9°F4.9°C 87% Calm Calm -- 29.94 in1013.9 mb - 0.00 in0.0 mm 0.00 in0.0 mm
04:30 AM 44.4°F6.9°C 40.8°F4.9°C 87% Calm Calm -- 29.94 in1013.9 mb - 0.00 in0.0 mm 0.00 in0.0 mm
04:40 AM 44.5°F6.9°C 40.9°F4.9°C 87% Calm Calm -- 29.94 in1013.9 mb - 0.00 in0.0 mm 0.00 in0.0 mm
04:50 AM 44.4°F6.9°C 40.8°F4.9°C 87% Calm Calm -- 29.94 in1013.9 mb - 0.00 in0.0 mm 0.00 in0.0 mm
05:00 AM 44.5°F6.9°C 40.9°F4.9°C 87% Calm Calm -- 29.94 in1013.9 mb - 0.00 in0.0 mm 0.00 in0.0 mm
05:10 AM 44.4°F6.9°C 40.8°F4.9°C 87% Calm Calm -- 29.94 in1013.9 mb - 0.00 in0.0 mm 0.00 in0.0 mm
05:20 AM 44.7°F7.1°C 41.1°F5.1°C 87% Calm Calm -- 29.94 in1013.9 mb - 0.00 in0.0 mm 0.00 in0.0 mm
05:30 AM 44.9°F7.2°C 41.2°F5.1°C 87% Calm Calm 5.8 mph9.3 kmh 29.94 in1013.9 mb - 0.00 in0.0 mm 0.00 in0.0 mm
05:40 AM 45.9°F7.7°C 42.3°F5.7°C 87% Calm Calm -- 29.95 in1014.2 mb - 0.00 in0.0 mm 0.00 in0.0 mm
05:50 AM 46.6°F8.1°C 42.6°F5.9°C 86% Calm Calm -- 29.95 in1014.2 mb - 0.00 in0.0 mm 0.00 in0.0 mm
06:00 AM 47.3°F8.5°C 43.3°F6.3°C 86% Calm Calm -- 29.94 in1013.9 mb - 0.00 in0.0 mm 0.00 in0.0 mm
06:10 AM 47.9°F8.8°C 43.6°F6.4°C 85% Calm Calm -- 29.94 in1013.9 mb - 0.00 in0.0 mm 0.00 in0.0 mm
06:20 AM 49.1°F9.5°C 44.8°F7.1°C 85% Calm Calm -- 29.95 in1014.2 mb - 0.00 in0.0 mm 0.00 in0.0 mm
06:30 AM 49.8°F9.9°C 44.5°F6.9°C 82% Calm Calm -- 29.95 in1014.2 mb - 0.00 in0.0 mm 0.00 in0.0 mm
06:40 AM 50.1°F10.1°C 45.1°F7.3°C 83% Calm Calm -- 29.95 in1014.2 mb - 0.00 in0.0 mm 0.00 in0.0 mm
06:50 AM 51.6°F10.9°C 46.0°F7.8°C 81% Calm Calm 2.3 mph3.7 kmh 29.95 in1014.2 mb - 0.00 in0.0 mm 0.00 in0.0 mm
07:00 AM 52.8°F11.6°C 46.5°F8.1°C 79% 2.3 mph ESE3.7 kmh ESE 4.6 mph7.4 kmh 29.95 in1014.2 mb - 0.00 in0.0 mm 0.00 in0.0 mm
07:10 AM 53.2°F11.8°C 47.2°F8.4°C 80% 3.5 mph E5.6 kmh E 5.8 mph9.3 kmh 29.95 in1014.2 mb - 0.00 in0.0 mm 0.00 in0.0 mm
07:20 AM 54.4°F12.4°C 48.0°F8.9°C 79% 3.5 mph E5.6 kmh E 6.9 mph11.1 kmh 29.95 in1014.2 mb - 0.00 in0.0 mm 0.00 in0.0 mm
07:30 AM 56.1°F13.4°C 49.3°F9.6°C 78% 3.5 mph S5.6 kmh S 5.8 mph9.3 kmh 29.95 in1014.2 mb - 0.00 in0.0 mm 0.00 in0.0 mm
07:40 AM 57.3°F14.1°C 50.2°F10.1°C 77% 2.3 mph WNW3.7 kmh WNW 5.8 mph9.3 kmh 29.95 in1014.2 mb - 0.00 in0.0 mm 0.00 in0.0 mm
07:50 AM 57.7°F14.3°C 49.5°F9.7°C 74% 2.3 mph WNW3.7 kmh WNW 5.8 mph9.3 kmh 29.95 in1014.2 mb - 0.00 in0.0 mm 0.00 in0.0 mm
08:00 AM 58.6°F14.8°C 50.3°F10.2°C 74% 2.3 mph WNW3.7 kmh WNW 11.5 mph18.5 kmh 29.95 in1014.2 mb - 0.00 in0.0 mm 0.00 in0.0 mm
08:10 AM 58.6°F14.8°C 50.0°F10.0°C 73% 5.8 mph W9.3 kmh W 8.1 mph13.0 kmh 29.95 in1014.2 mb - 0.00 in0.0 mm 0.00 in0.0 mm
08:20 AM 58.4°F14.7°C 49.0°F9.4°C 71% 5.8 mph W9.3 kmh W 8.1 mph13.0 kmh 29.95 in1014.2 mb - 0.00 in0.0 mm 0.00 in0.0 mm
08:30 AM 58.3°F14.6°C 48.6°F9.2°C 70% 5.8 mph WNW9.3 kmh WNW 11.5 mph18.5 kmh 29.95 in1014.2 mb - 0.00 in0.0 mm 0.00 in0.0 mm
08:40 AM 59.0°F15.0°C 49.2°F9.6°C 70% 4.6 mph WNW7.4 kmh WNW 8.1 mph13.0 kmh 29.95 in1014.2 mb - 0.00 in0.0 mm 0.00 in0.0 mm
08:50 AM 59.6°F15.3°C 49.4°F9.7°C 69% 5.8 mph W9.3 kmh W 8.1 mph13.0 kmh 29.95 in1014.2 mb - 0.00 in0.0 mm 0.00 in0.0 mm
09:00 AM 59.6°F15.3°C 48.6°F9.2°C 67% 4.6 mph WNW7.4 kmh WNW 6.9 mph11.1 kmh 29.95 in1014.2 mb - 0.00 in0.0 mm 0.00 in0.0 mm
09:10 AM 60.3°F15.7°C 48.9°F9.4°C 66% 5.8 mph WSW9.3 kmh WSW 8.1 mph13.0 kmh 29.95 in1014.2 mb - 0.00 in0.0 mm 0.00 in0.0 mm
09:20 AM 60.4°F15.8°C 47.7°F8.7°C 63% 6.9 mph WNW11.1 kmh WNW 11.5 mph18.5 kmh 29.95 in1014.2 mb - 0.00 in0.0 mm 0.00 in0.0 mm
09:30 AM 61.2°F16.2°C 48.5°F9.2°C 63% 5.8 mph W9.3 kmh W 6.9 mph11.1 kmh 29.94 in1013.9 mb - 0.00 in0.0 mm 0.00 in0.0 mm
09:40 AM 61.6°F16.4°C 48.5°F9.2°C 62% 5.8 mph NNW9.3 kmh NNW 9.2 mph14.8 kmh 29.94 in1013.9 mb - 0.00 in0.0 mm 0.00 in0.0 mm
09:50 AM 61.4°F16.3°C 48.7°F9.3°C 63% 4.6 mph W7.4 kmh W 8.1 mph13.0 kmh 29.94 in1013.9 mb - 0.00 in0.0 mm 0.00 in0.0 mm
10:00 AM 61.6°F16.4°C 48.4°F9.1°C 62% 4.6 mph WNW7.4 kmh WNW 13.8 mph22.2 kmh 29.94 in1013.9 mb - 0.00 in0.0 mm 0.00 in0.0 mm
10:10 AM 61.5°F16.4°C 47.9°F8.8°C 61% 6.9 mph WNW11.1 kmh WNW 9.2 mph14.8 kmh 29.94 in1013.9 mb - 0.00 in0.0 mm 0.00 in0.0 mm
10:20 AM 62.7°F17.1°C 48.6°F9.2°C 60% 6.9 mph WSW11.1 kmh WSW 11.5 mph18.5 kmh 29.94 in1013.9 mb - 0.00 in0.0 mm 0.00 in0.0 mm
10:30 AM 63.6°F17.6°C 49.0°F9.4°C 59% 8.1 mph SW13.0 kmh SW 13.8 mph22.2 kmh 29.94 in1013.9 mb - 0.00 in0.0 mm 0.00 in0.0 mm
10:40 AM 63.9°F17.7°C 46.9°F8.3°C 54% 8.1 mph WNW13.0 kmh WNW 9.2 mph14.8 kmh 29.94 in1013.9 mb - 0.00 in0.0 mm 0.00 in0.0 mm
10:50 AM 63.8°F17.7°C 48.8°F9.3°C 58% 8.1 mph SW13.0 kmh SW 11.5 mph18.5 kmh 29.94 in1013.9 mb - 0.00 in0.0 mm 0.00 in0.0 mm
11:00 AM 64.3°F17.9°C 49.7°F9.8°C 59% 4.6 mph W7.4 kmh W 6.9 mph11.1 kmh 29.94 in1013.9 mb - 0.00 in0.0 mm 0.00 in0.0 mm
11:10 AM 63.1°F17.3°C 49.0°F9.4°C 60% 2.3 mph WSW3.7 kmh WSW 2.3 mph3.7 kmh 29.94 in1013.9 mb - 0.00 in0.0 mm 0.00 in0.0 mm
11:20 AM 64.1°F17.8°C 49.9°F9.9°C 60% 1.2 mph WNW1.9 kmh WNW 5.8 mph9.3 kmh 29.94 in1013.9 mb - 0.00 in0.0 mm 0.00 in0.0 mm
11:30 AM 65.3°F18.5°C 49.2°F9.6°C 56% 5.8 mph WSW9.3 kmh WSW 10.4 mph16.7 kmh 29.93 in1013.5 mb - 0.00 in0.0 mm 0.00 in0.0 mm
11:40 AM 65.6°F18.7°C 50.4°F10.2°C 58% 9.2 mph WSW14.8 kmh WSW 13.8 mph22.2 kmh 29.93 in1013.5 mb - 0.00 in0.0 mm 0.00 in0.0 mm
11:50 AM 64.6°F18.1°C 50.4°F10.2°C 60% 8.1 mph W13.0 kmh W 15.0 mph24.1 kmh 29.93 in1013.5 mb - 0.00 in0.0 mm 0.00 in0.0 mm
12:00 PM 63.8°F17.7°C 49.7°F9.8°C 60% 3.5 mph W5.6 kmh W 8.1 mph13.0 kmh 29.93 in1013.5 mb - 0.00 in0.0 mm 0.00 in0.0 mm
12:10 PM 63.9°F17.7°C 49.3°F9.6°C 59% 6.9 mph W11.1 kmh W 11.5 mph18.5 kmh 29.94 in1013.9 mb - 0.00 in0.0 mm 0.00 in0.0 mm
12:20 PM 63.8°F17.7°C 50.1°F10.1°C 61% 6.9 mph W11.1 kmh W 11.5 mph18.5 kmh 29.94 in1013.9 mb - 0.00 in0.0 mm 0.00 in0.0 mm
12:30 PM 63.8°F17.7°C 51.0°F10.6°C 63% 5.8 mph WSW9.3 kmh WSW 11.5 mph18.5 kmh 29.94 in1013.9 mb - 0.00 in0.0 mm 0.00 in0.0 mm
12:40 PM 65.2°F18.4°C 51.4°F10.8°C 61% 9.2 mph WSW14.8 kmh WSW 16.1 mph25.9 kmh 29.94 in1013.9 mb - 0.00 in0.0 mm 0.00 in0.0 mm
12:50 PM 65.1°F18.4°C 50.9°F10.5°C 60% 9.2 mph W14.8 kmh W 18.4 mph29.6 kmh 29.94 in1013.9 mb - 0.00 in0.0 mm 0.00 in0.0 mm
01:00 PM 65.1°F18.4°C 51.3°F10.7°C 61% 6.9 mph WSW11.1 kmh WSW 12.7 mph20.4 kmh 29.94 in1013.9 mb - 0.00 in0.0 mm 0.00 in0.0 mm
01:10 PM 63.9°F17.7°C 50.6°F10.3°C 62% 9.2 mph WNW14.8 kmh WNW 13.8 mph22.2 kmh 29.94 in1013.9 mb - 0.00 in0.0 mm 0.00 in0.0 mm
01:20 PM 62.9°F17.2°C 50.5°F10.3°C 64% 6.9 mph W11.1 kmh W 11.5 mph18.5 kmh 29.94 in1013.9 mb - 0.00 in0.0 mm 0.00 in0.0 mm
01:30 PM 63.8°F17.7°C 51.8°F11.0°C 65% 11.5 mph WNW18.5 kmh WNW 16.1 mph25.9 kmh 29.94 in1013.9 mb - 0.00 in0.0 mm 0.00 in0.0 mm
01:40 PM 63.3°F17.4°C 51.3°F10.7°C 65% 8.1 mph WNW13.0 kmh WNW 15.0 mph24.1 kmh 29.94 in1013.9 mb - 0.00 in0.0 mm 0.00 in0.0 mm
01:50 PM 63.3°F17.4°C 51.4°F10.8°C 65% 10.4 mph W16.7 kmh W 16.1 mph25.9 kmh 29.95 in1014.2 mb - 0.00 in0.0 mm 0.00 in0.0 mm
02:00 PM 63.3°F17.4°C 50.9°F10.5°C 64% 10.4 mph W16.7 kmh W 16.1 mph25.9 kmh 29.95 in1014.2 mb - 0.00 in0.0 mm 0.00 in0.0 mm
02:10 PM 64.2°F17.9°C 50.9°F10.5°C 62% 9.2 mph WNW14.8 kmh WNW 12.7 mph20.4 kmh 29.94 in1013.9 mb - 0.00 in0.0 mm 0.00 in0.0 mm
02:20 PM 64.6°F18.1°C 51.3°F10.7°C 62% 10.4 mph NW16.7 kmh NW 13.8 mph22.2 kmh 29.94 in1013.9 mb - 0.00 in0.0 mm 0.00 in0.0 mm
02:30 PM 64.0°F17.8°C 50.3°F10.2°C 61% 6.9 mph W11.1 kmh W 16.1 mph25.9 kmh 29.94 in1013.9 mb - 0.00 in0.0 mm 0.00 in0.0 mm
02:40 PM 64.4°F18.0°C 51.5°F10.8°C 63% 4.6 mph NW7.4 kmh NW 8.1 mph13.0 kmh 29.95 in1014.2 mb - 0.00 in0.0 mm 0.00 in0.0 mm
02:50 PM 64.4°F18.0°C 50.6°F10.3°C 61% 5.8 mph SW9.3 kmh SW 11.5 mph18.5 kmh 29.95 in1014.2 mb - 0.00 in0.0 mm 0.00 in0.0 mm
03:00 PM 63.4°F17.4°C 51.0°F10.6°C 64% 6.9 mph W11.1 kmh W 13.8 mph22.2 kmh 29.96 in1014.6 mb - 0.00 in0.0 mm 0.00 in0.0 mm
03:10 PM 62.8°F17.1°C 50.8°F10.4°C 65% 4.6 mph W7.4 kmh W 11.5 mph18.5 kmh 29.96 in1014.6 mb - 0.00 in0.0 mm 0.00 in0.0 mm
03:20 PM 61.4°F16.3°C 50.4°F10.2°C 67% 8.1 mph W13.0 kmh W 12.7 mph20.4 kmh 29.96 in1014.6 mb - 0.00 in0.0 mm 0.00 in0.0 mm
03:30 PM 59.9°F15.5°C 51.6°F10.9°C 74% 5.8 mph W9.3 kmh W 11.5 mph18.5 kmh 29.96 in1014.6 mb - 0.00 in0.0 mm 0.00 in0.0 mm
03:40 PM 60.2°F15.7°C 53.0°F11.7°C 77% 4.6 mph SW7.4 kmh SW 8.1 mph13.0 kmh 29.95 in1014.2 mb - 0.00 in0.0 mm 0.00 in0.0 mm
03:50 PM 60.7°F15.9°C 52.3°F11.3°C 74% 4.6 mph WNW7.4 kmh WNW 9.2 mph14.8 kmh 29.95 in1014.2 mb - 0.00 in0.0 mm 0.00 in0.0 mm
04:00 PM 62.6°F17.0°C 53.5°F11.9°C 72% 5.8 mph W9.3 kmh W 9.2 mph14.8 kmh 29.95 in1014.2 mb - 0.00 in0.0 mm 0.00 in0.0 mm
04:10 PM 62.8°F17.1°C 52.0°F11.1°C 68% 5.8 mph WSW9.3 kmh WSW 11.5 mph18.5 kmh 29.95 in1014.2 mb - 0.00 in0.0 mm 0.00 in0.0 mm
04:20 PM 62.4°F16.9°C 52.4°F11.3°C 70% 3.5 mph WSW5.6 kmh WSW 9.2 mph14.8 kmh 29.95 in1014.2 mb - 0.00 in0.0 mm 0.00 in0.0 mm
04:30 PM 61.8°F16.6°C 52.3°F11.3°C 71% 4.6 mph W7.4 kmh W 9.2 mph14.8 kmh 29.95 in1014.2 mb - 0.00 in0.0 mm 0.00 in0.0 mm
04:40 PM 61.0°F16.1°C 52.3°F11.3°C 73% 6.9 mph WSW11.1 kmh WSW 9.2 mph14.8 kmh 29.95 in1014.2 mb - 0.00 in0.0 mm 0.00 in0.0 mm
04:50 PM 60.3°F15.7°C 53.1°F11.7°C 77% 4.6 mph W7.4 kmh W 11.5 mph18.5 kmh 29.95 in1014.2 mb - 0.00 in0.0 mm 0.00 in0.0 mm
05:00 PM 59.8°F15.4°C 53.6°F12.0°C 80% 2.3 mph NW3.7 kmh NW 5.8 mph9.3 kmh 29.95 in1014.2 mb - 0.00 in0.0 mm 0.00 in0.0 mm
05:10 PM 59.6°F15.3°C 53.1°F11.7°C 79% 3.5 mph WNW5.6 kmh WNW 11.5 mph18.5 kmh 29.95 in1014.2 mb - 0.00 in0.0 mm 0.00 in0.0 mm
05:20 PM 59.3°F15.2°C 53.4°F11.9°C 81% 3.5 mph WNW5.6 kmh WNW 5.8 mph9.3 kmh 29.95 in1014.2 mb - 0.00 in0.0 mm 0.00 in0.0 mm
05:30 PM 58.8°F14.9°C 53.3°F11.8°C 82% 1.2 mph W1.9 kmh W 4.6 mph7.4 kmh 29.95 in1014.2 mb - 0.00 in0.0 mm 0.00 in0.0 mm
05:40 PM 60.7°F15.9°C 55.2°F12.9°C 82% Calm Calm 2.3 mph3.7 kmh 29.95 in1014.2 mb - 0.00 in0.0 mm 0.00 in0.0 mm
05:50 PM 62.2°F16.8°C 53.4°F11.9°C 73% 3.5 mph W5.6 kmh W 9.2 mph14.8 kmh 29.95 in1014.2 mb - 0.00 in0.0 mm 0.00 in0.0 mm
06:00 PM 61.0°F16.1°C 53.4°F11.9°C 76% 3.5 mph W5.6 kmh W 8.1 mph13.0 kmh 29.95 in1014.2 mb - 0.00 in0.0 mm 0.00 in0.0 mm
06:10 PM 59.9°F15.5°C 53.0°F11.7°C 78% 1.2 mph WSW1.9 kmh WSW 5.8 mph9.3 kmh 29.95 in1014.2 mb - 0.00 in0.0 mm 0.00 in0.0 mm
06:20 PM 59.1°F15.1°C 52.2°F11.2°C 78% 5.8 mph W9.3 kmh W 9.2 mph14.8 kmh 29.95 in1014.2 mb - 0.00 in0.0 mm 0.00 in0.0 mm
06:30 PM 58.1°F14.5°C 52.0°F11.1°C 80% 6.9 mph WNW11.1 kmh WNW 11.5 mph18.5 kmh 29.95 in1014.2 mb - 0.01 in0.3 mm 0.01 in0.3 mm
06:40 PM 57.3°F14.1°C 51.9°F11.1°C 82% 5.8 mph W9.3 kmh W 8.1 mph13.0 kmh 29.95 in1014.2 mb - 0.01 in0.3 mm 0.01 in0.3 mm
06:50 PM 57.7°F14.3°C 52.6°F11.4°C 83% Calm Calm 4.6 mph7.4 kmh 29.95 in1014.2 mb - 0.01 in0.3 mm 0.01 in0.3 mm
07:00 PM 57.8°F14.3°C 52.7°F11.5°C 83% 2.3 mph NNW3.7 kmh NNW 4.6 mph7.4 kmh 29.96 in1014.6 mb - 0.01 in0.3 mm 0.01 in0.3 mm
07:10 PM 57.9°F14.4°C 52.1°F11.2°C 81% 2.3 mph NW3.7 kmh NW 4.6 mph7.4 kmh 29.96 in1014.6 mb - 0.01 in0.3 mm 0.01 in0.3 mm
07:20 PM 57.9°F14.4°C 51.8°F11.0°C 80% 1.2 mph WNW1.9 kmh WNW 2.3 mph3.7 kmh 29.96 in1014.6 mb - 0.01 in0.3 mm 0.01 in0.3 mm
07:30 PM 57.8°F14.3°C 51.7°F10.9°C 80% Calm Calm -- 29.96 in1014.6 mb - 0.00 in0.0 mm 0.01 in0.3 mm
07:40 PM 57.8°F14.3°C 52.0°F11.1°C 81% Calm Calm -- 29.96 in1014.6 mb - 0.00 in0.0 mm 0.01 in0.3 mm
07:50 PM 57.8°F14.3°C 52.0°F11.1°C 81% Calm Calm -- 29.96 in1014.6 mb - 0.00 in0.0 mm 0.01 in0.3 mm
08:00 PM 57.8°F14.3°C 52.0°F11.1°C 81% Calm Calm -- 29.96 in1014.6 mb - 0.00 in0.0 mm 0.01 in0.3 mm
08:10 PM 57.3°F14.1°C 51.9°F11.1°C 82% Calm Calm -- 29.97 in1014.9 mb - 0.00 in0.0 mm 0.01 in0.3 mm
08:20 PM 57.0°F13.9°C 51.5°F10.8°C 82% Calm Calm -- 29.97 in1014.9 mb - 0.00 in0.0 mm 0.01 in0.3 mm
08:30 PM 56.7°F13.7°C 51.3°F10.7°C 82% Calm Calm -- 29.98 in1015.2 mb - 0.00 in0.0 mm 0.01 in0.3 mm
08:40 PM 56.7°F13.7°C 51.3°F10.7°C 82% 3.5 mph W5.6 kmh W 6.9 mph11.1 kmh 29.98 in1015.2 mb - 0.00 in0.0 mm 0.01 in0.3 mm
08:50 PM 56.4°F13.6°C 51.3°F10.7°C 83% 2.3 mph WNW3.7 kmh WNW 4.6 mph7.4 kmh 29.98 in1015.2 mb - 0.00 in0.0 mm 0.01 in0.3 mm
09:00 PM 56.1°F13.4°C 51.0°F10.6°C 83% Calm Calm -- 29.98 in1015.2 mb - 0.00 in0.0 mm 0.01 in0.3 mm
09:10 PM 55.8°F13.2°C 50.7°F10.4°C 83% Calm Calm -- 29.99 in1015.6 mb - 0.00 in0.0 mm 0.01 in0.3 mm
09:20 PM 55.4°F13.0°C 50.4°F10.2°C 83% Calm Calm -- 29.99 in1015.6 mb - 0.00 in0.0 mm 0.01 in0.3 mm
09:30 PM 54.9°F12.7°C 50.2°F10.1°C 84% Calm Calm -- 29.99 in1015.6 mb - 0.00 in0.0 mm 0.01 in0.3 mm
09:40 PM 54.7°F12.6°C 49.9°F9.9°C 84% Calm Calm -- 29.99 in1015.6 mb - 0.00 in0.0 mm 0.01 in0.3 mm
09:50 PM 54.2°F12.3°C 49.4°F9.7°C 84% Calm Calm -- 29.99 in1015.6 mb - 0.00 in0.0 mm 0.01 in0.3 mm
10:00 PM 53.8°F12.1°C 49.1°F9.5°C 84% Calm Calm -- 29.99 in1015.6 mb - 0.00 in0.0 mm 0.01 in0.3 mm
10:10 PM 53.6°F12.0°C 48.9°F9.4°C 84% Calm Calm -- 29.99 in1015.6 mb - 0.00 in0.0 mm 0.01 in0.3 mm
10:20 PM 53.6°F12.0°C 48.8°F9.3°C 84% Calm Calm -- 29.99 in1015.6 mb - 0.00 in0.0 mm 0.01 in0.3 mm
10:30 PM 53.6°F12.0°C 48.6°F9.2°C 83% Calm Calm -- 29.99 in1015.6 mb - 0.00 in0.0 mm 0.01 in0.3 mm
10:40 PM 53.8°F12.1°C 48.1°F8.9°C 81% Calm Calm -- 29.99 in1015.6 mb - 0.00 in0.0 mm 0.01 in0.3 mm
10:50 PM 54.3°F12.4°C 47.9°F8.8°C 79% Calm Calm -- 29.99 in1015.6 mb - 0.00 in0.0 mm 0.01 in0.3 mm
11:00 PM 54.3°F12.4°C 47.9°F8.8°C 79% Calm Calm -- 29.99 in1015.6 mb - 0.00 in0.0 mm 0.06 in1.5 mm
11:10 PM 54.0°F12.2°C 48.0°F8.9°C 80% Calm Calm -- 30.00 in1015.9 mb - 0.00 in0.0 mm 0.06 in1.5 mm
11:20 PM 53.9°F12.2°C 47.9°F8.8°C 80% Calm Calm -- 29.99 in1015.6 mb - 0.00 in0.0 mm 0.06 in1.5 mm
11:30 PM 54.2°F12.3°C 48.2°F9.0°C 80% Calm Calm -- 30.00 in1015.9 mb - 0.00 in0.0 mm 0.06 in1.5 mm
11:40 PM 53.8°F12.1°C 48.1°F8.9°C 81% Calm Calm -- 30.00 in1015.9 mb - 0.00 in0.0 mm 0.06 in1.5 mm
11:50 PM 53.7°F12.1°C 48.3°F9.1°C 82% Calm Calm -- 30.00 in1015.9 mb - 0.00 in0.0 mm 0.06 in1.5 mm